Terminal Aerodrome Forecast
Issued by NWS Wilmington, NC

Home | Current Version | Previous Version | Text Only | Print | Product List | Glossary On
Versions: 1 2 3 4 5 6 7 8 9 10 11 12 13 14 15 16
175
FTUS42 KILM 032327
TAFMYR
TAF
KMYR 032327Z 0400/0424 02005KT P6SM BKN120
     FM041200 03008KT P6SM OVC090
     FM041800 05008KT P6SM -RA OVC070
     FM042100 05009KT 6SM -RA BKN020 OVC050
      AMD LTD TO CLD VIS AND WIND 0404/0411=

USA.gov is the U.S. government's official web portal to all federal, state and local government web resources and services.